createdAt,value
2019-05-26T00:04:57.277Z,12.61
2019-05-26T00:10:01.487Z,12.61
2019-05-26T00:15:06.187Z,12.67
2019-05-26T00:20:10.960Z,12.60
2019-05-26T00:25:15.603Z,12.41
2019-05-26T00:30:20.410Z,12.44
2019-05-26T00:35:24.607Z,12.48
2019-05-26T00:40:28.806Z,12.36
2019-05-26T00:45:33.225Z,12.35
2019-05-26T00:50:37.449Z,12.38
2019-05-26T00:55:41.628Z,12.34
2019-05-26T01:00:46.019Z,12.43
2019-05-26T01:05:50.233Z,12.13
2019-05-26T01:10:54.421Z,12.06
2019-05-26T01:15:58.629Z,11.87
2019-05-26T01:21:02.827Z,11.95
2019-05-26T01:26:07.072Z,11.84
2019-05-26T01:31:11.321Z,11.82
2019-05-26T01:36:15.911Z,11.67
2019-05-26T01:41:20.163Z,11.60
2019-05-26T01:46:24.357Z,11.63
2019-05-26T01:51:28.541Z,11.75
2019-05-26T01:56:32.750Z,11.75
2019-05-26T02:01:36.957Z,11.65
2019-05-26T02:06:41.152Z,11.55
2019-05-26T02:11:45.370Z,11.53
2019-05-26T02:16:49.569Z,11.62
2019-05-26T02:21:53.805Z,11.50
2019-05-26T02:26:58.041Z,11.48
2019-05-26T02:32:02.239Z,11.51
2019-05-26T02:37:06.454Z,11.35
2019-05-26T02:42:10.923Z,11.28
2019-05-26T02:47:15.114Z,11.26
2019-05-26T02:52:19.332Z,11.16
2019-05-26T02:57:23.504Z,11.21
2019-05-26T03:02:27.939Z,11.24
2019-05-26T03:07:33.141Z,11.39
2019-05-26T03:12:41.816Z,11.33
2019-05-26T03:17:47.792Z,11.34
2019-05-26T03:22:54.155Z,11.41
2019-05-26T03:27:58.364Z,11.47
2019-05-26T03:33:02.807Z,11.33
2019-05-26T03:38:06.999Z,11.20
2019-05-26T03:43:11.194Z,10.94
2019-05-26T03:48:15.424Z,11.07
2019-05-26T03:53:19.613Z,10.96
2019-05-26T03:58:23.819Z,11.14
2019-05-26T04:03:28.203Z,10.85
2019-05-26T04:08:32.400Z,10.83
2019-05-26T04:13:36.594Z,10.91
2019-05-26T04:18:40.891Z,10.79
2019-05-26T04:23:45.084Z,10.84
2019-05-26T04:28:49.322Z,10.92
2019-05-26T04:33:53.547Z,11.04
2019-05-26T04:38:57.774Z,11.08
2019-05-26T04:44:01.972Z,11.20
2019-05-26T04:49:06.171Z,11.15
2019-05-26T04:54:10.361Z,11.01
2019-05-26T04:59:14.699Z,11.15
2019-05-26T05:04:18.897Z,11.29
2019-05-26T05:09:23.091Z,11.43
2019-05-26T05:14:27.283Z,11.29
2019-05-26T05:19:31.489Z,11.32
2019-05-26T05:24:35.706Z,11.66
2019-05-26T05:29:39.913Z,11.66
2019-05-26T05:34:44.096Z,11.92
2019-05-26T05:39:48.292Z,12.16
2019-05-26T05:44:52.489Z,12.37
2019-05-26T05:49:56.667Z,12.64
2019-05-26T05:55:00.870Z,12.62
2019-05-26T06:00:06.469Z,12.64
2019-05-26T06:05:10.957Z,12.69
2019-05-26T06:10:15.575Z,13.20
2019-05-26T06:15:19.833Z,13.28
2019-05-26T06:20:24.067Z,13.56
2019-05-26T06:25:28.324Z,13.70
2019-05-26T06:30:32.526Z,13.54
2019-05-26T06:35:36.793Z,13.84
2019-05-26T06:40:41.115Z,13.98
2019-05-26T06:45:45.317Z,13.97
2019-05-26T06:50:49.513Z,14.06
2019-05-26T06:55:53.748Z,14.28
2019-05-26T07:00:57.915Z,14.50
2019-05-26T07:06:02.136Z,14.34
2019-05-26T07:11:06.415Z,14.72
2019-05-26T07:16:10.636Z,14.98
2019-05-26T07:21:14.898Z,15.04
2019-05-26T07:26:19.126Z,15.26
2019-05-26T07:31:23.346Z,15.90
2019-05-26T07:36:27.550Z,15.47
2019-05-26T07:41:31.759Z,15.38
2019-05-26T07:46:36.007Z,15.74
2019-05-26T07:51:40.215Z,16.24
2019-05-26T07:56:44.452Z,16.32
2019-05-26T08:01:48.691Z,16.43
2019-05-26T08:06:52.905Z,16.20
2019-05-26T08:11:57.119Z,16.25
2019-05-26T08:17:01.374Z,16.68
2019-05-26T08:22:05.582Z,16.42
2019-05-26T08:27:09.788Z,16.54
2019-05-26T08:32:15.115Z,16.77
2019-05-26T08:37:19.615Z,17.23
2019-05-26T08:42:27.181Z,17.71
2019-05-26T08:47:29.747Z,17.01
2019-05-26T08:52:33.959Z,17.25
2019-05-26T08:57:38.175Z,17.57
2019-05-26T09:02:42.406Z,17.67
2019-05-26T09:07:46.605Z,17.79
2019-05-26T09:13:00.246Z,17.82
2019-05-26T09:17:56.843Z,18.20
2019-05-26T09:23:01.180Z,18.22
2019-05-26T09:28:05.594Z,17.96
2019-05-26T09:33:09.818Z,18.34
2019-05-26T09:38:14.016Z,18.36
2019-05-26T09:43:18.228Z,18.70
2019-05-26T09:48:22.467Z,18.90
2019-05-26T09:53:26.681Z,18.96
2019-05-26T09:58:30.882Z,18.59
2019-05-26T10:03:35.392Z,19.00
2019-05-26T10:08:39.628Z,19.05
2019-05-26T10:13:43.876Z,18.74
2019-05-26T10:18:48.120Z,18.99
2019-05-26T10:23:53.318Z,19.02
2019-05-26T10:29:00.584Z,19.57
2019-05-26T10:34:03.753Z,19.53
2019-05-26T10:39:08.982Z,19.65
2019-05-26T10:44:13.195Z,19.41
2019-05-26T10:49:17.397Z,19.41
2019-05-26T10:54:21.595Z,19.58
2019-05-26T10:59:25.827Z,19.98
2019-05-26T11:04:30.038Z,20.67
2019-05-26T11:09:34.247Z,20.67
2019-05-26T11:14:38.444Z,20.41
2019-05-26T11:19:42.645Z,20.13
2019-05-26T11:24:46.882Z,20.09
2019-05-26T11:29:51.083Z,20.59
2019-05-26T11:35:01.592Z,20.90
2019-05-26T11:40:01.238Z,20.97
2019-05-26T11:45:06.328Z,21.01
2019-05-26T11:50:11.281Z,22.23
2019-05-26T11:55:15.688Z,22.77
2019-05-26T12:00:21.207Z,22.27
2019-05-26T12:05:25.412Z,22.49
2019-05-26T12:10:29.627Z,21.21
2019-05-26T12:15:33.893Z,21.64
2019-05-26T12:20:38.172Z,22.49
2019-05-26T12:25:42.654Z,21.89
2019-05-26T12:30:47.098Z,22.38
2019-05-26T12:35:51.353Z,22.52
2019-05-26T12:40:55.563Z,21.99
2019-05-26T12:45:59.768Z,21.36
2019-05-26T12:51:03.991Z,21.60
2019-05-26T12:56:08.208Z,22.41
2019-05-26T13:01:12.492Z,22.21
2019-05-26T13:06:17.702Z,22.09
2019-05-26T13:11:22.865Z,22.07
2019-05-26T13:16:27.286Z,22.19
2019-05-26T13:21:31.511Z,22.55
2019-05-26T13:26:35.689Z,22.68
2019-05-26T13:31:39.920Z,21.71
2019-05-26T13:36:44.529Z,21.46
2019-05-26T13:41:48.732Z,21.61
2019-05-26T13:46:52.987Z,22.03
2019-05-26T13:51:57.257Z,21.88
2019-05-26T13:57:01.462Z,21.80
2019-05-26T14:02:05.767Z,21.39
2019-05-26T14:07:10.017Z,22.08
2019-05-26T14:12:14.210Z,21.47
2019-05-26T14:17:18.707Z,21.59
2019-05-26T14:22:22.933Z,21.53
2019-05-26T14:27:27.278Z,21.65
2019-05-26T14:32:31.507Z,21.63
2019-05-26T14:37:35.774Z,21.72
2019-05-26T14:42:39.997Z,21.71
2019-05-26T14:47:44.235Z,22.02
2019-05-26T14:52:48.433Z,22.07
2019-05-26T14:57:52.767Z,21.61
2019-05-26T15:02:57.174Z,21.74
2019-05-26T15:08:01.654Z,21.64
2019-05-26T15:13:07.027Z,21.79
2019-05-26T15:18:11.201Z,22.25
2019-05-26T15:23:15.419Z,22.02
2019-05-26T15:28:19.646Z,21.83
2019-05-26T15:33:23.886Z,22.08
2019-05-26T15:38:42.009Z,21.63
2019-05-26T15:43:34.127Z,21.21
2019-05-26T15:48:38.477Z,21.10
2019-05-26T15:53:42.691Z,21.08
2019-05-26T15:58:46.919Z,21.18
2019-05-26T16:03:52.157Z,21.34
2019-05-26T16:08:56.358Z,21.28
2019-05-26T16:14:01.278Z,21.34
2019-05-26T16:19:05.597Z,21.33
2019-05-26T16:24:09.806Z,21.33
2019-05-26T16:29:14.059Z,21.16
2019-05-26T16:34:18.304Z,21.52
2019-05-26T16:39:36.118Z,21.47
2019-05-26T16:44:28.702Z,22.33
2019-05-26T16:49:33.013Z,21.85
2019-05-26T16:54:37.221Z,21.80
2019-05-26T16:59:41.424Z,22.01
2019-05-26T17:04:45.640Z,21.67
2019-05-26T17:09:49.916Z,21.70
2019-05-26T17:14:54.131Z,21.54
2019-05-26T17:19:58.342Z,21.38
2019-05-26T17:25:02.547Z,21.26
2019-05-26T17:30:07.628Z,21.28
2019-05-26T17:35:11.934Z,21.33
2019-05-26T17:40:16.143Z,21.21
2019-05-26T17:45:20.835Z,21.13
2019-05-26T17:50:25.089Z,21.15
2019-05-26T17:55:29.551Z,21.01
2019-05-26T18:00:34.632Z,20.98
2019-05-26T18:05:38.861Z,20.97
2019-05-26T18:10:44.198Z,20.89
2019-05-26T18:15:48.576Z,20.90
2019-05-26T18:20:52.784Z,20.75
2019-05-26T18:25:57.013Z,20.66
2019-05-26T18:31:02.386Z,20.71
2019-05-26T18:36:06.792Z,20.57
2019-05-26T18:41:11.592Z,20.49
2019-05-26T18:46:16.178Z,20.39
2019-05-26T18:51:20.519Z,20.34
2019-05-26T18:56:24.816Z,20.23
2019-05-26T19:01:29.056Z,20.30
2019-05-26T19:06:33.309Z,20.17
2019-05-26T19:11:37.848Z,20.00
2019-05-26T19:16:42.885Z,19.92
2019-05-26T19:21:47.147Z,19.86
2019-05-26T19:26:51.373Z,19.80
2019-05-26T19:31:55.686Z,19.73
2019-05-26T19:36:59.959Z,19.67
2019-05-26T19:42:06.502Z,19.63
2019-05-26T19:47:10.802Z,19.55
2019-05-26T19:52:15.119Z,19.43
2019-05-26T19:57:19.359Z,19.42
2019-05-26T20:02:23.719Z,19.40
2019-05-26T20:07:27.969Z,19.39
2019-05-26T20:12:32.231Z,19.38
2019-05-26T20:17:36.469Z,19.36
2019-05-26T20:22:40.737Z,19.38
2019-05-26T20:27:44.913Z,19.31
2019-05-26T20:32:49.128Z,19.33
2019-05-26T20:37:53.637Z,19.32
2019-05-26T20:42:57.874Z,19.35
2019-05-26T20:48:02.088Z,19.20
2019-05-26T20:53:06.289Z,19.21
2019-05-26T20:58:10.790Z,19.23
2019-05-26T21:03:15.005Z,19.13
2019-05-26T21:08:19.304Z,19.18
2019-05-26T21:13:23.653Z,19.07
2019-05-26T21:18:27.846Z,19.05
2019-05-26T21:23:32.082Z,19.04
2019-05-26T21:28:36.281Z,19.04
2019-05-26T21:33:40.498Z,19.05
2019-05-26T21:38:44.714Z,19.03
2019-05-26T21:43:48.918Z,18.99
2019-05-26T21:48:53.125Z,19.00
2019-05-26T21:53:57.430Z,18.98
2019-05-26T21:59:01.627Z,18.93
2019-05-26T22:04:06.388Z,18.89
2019-05-26T22:09:10.677Z,18.88
2019-05-26T22:14:14.881Z,18.92
2019-05-26T22:19:19.091Z,18.86
2019-05-26T22:24:23.330Z,18.82
2019-05-26T22:29:27.555Z,18.81
2019-05-26T22:34:31.769Z,18.78
2019-05-26T22:39:35.997Z,18.73
2019-05-26T22:44:40.216Z,18.73
2019-05-26T22:49:44.439Z,18.68
2019-05-26T22:54:48.719Z,18.60
2019-05-26T22:59:52.941Z,18.62
2019-05-26T23:04:57.156Z,18.61
2019-05-26T23:10:02.945Z,18.65
2019-05-26T23:15:08.235Z,18.61
2019-05-26T23:20:12.826Z,18.68
2019-05-26T23:25:17.265Z,18.64
2019-05-26T23:30:21.506Z,18.66
2019-05-26T23:35:25.706Z,18.62
2019-05-26T23:40:29.920Z,18.59
2019-05-26T23:45:34.169Z,18.56
2019-05-26T23:50:38.394Z,18.50
2019-05-26T23:55:42.611Z,18.50
